Time;durP1;ratioP1;P1;durP2;ratioP2;P2;SDS_P1;SDS_P2;PMS_P1;PMS_P2;Temp;Humidity;BMP_temperature;BMP_pressure;BME280_temperature;BME280_humidity;BME280_pressure;Samples;Min_cycle;Max_cycle;Signal;HPM_P1;HPM_P2
2022/12/20 00:01:14;;;;;;;4.38;2.92;;;;;;;10.60;100.00;101279.50;4955271;28;20398;-64
2022/12/20 00:03:40;;;;;;;6.07;3.08;;;;;;;10.56;100.00;101273.44;4972353;28;20019;-63
2022/12/20 00:06:06;;;;;;;5.32;3.05;;;;;;;10.59;100.00;101276.00;4972258;28;20023;-62
2022/12/20 00:08:33;;;;;;;6.63;3.13;;;;;;;10.61;100.00;101286.50;4972286;28;20034;-63
2022/12/20 00:11:00;;;;;;;7.53;3.53;;;;;;;10.65;100.00;101271.50;4955014;28;20027;-63
2022/12/20 00:13:26;;;;;;;4.00;3.22;;;;;;;10.73;100.00;101277.41;4971640;28;20394;-61
2022/12/20 00:16:05;;;;;;;5.88;3.10;;;;;;;10.69;100.00;101271.34;4970892;28;20019;-63
2022/12/20 00:18:30;;;;;;;;;;;;;;;10.76;100.00;101266.78;4972598;28;20081;-64
2022/12/20 00:20:59;;;;;;;6.60;2.90;;;;;;;10.67;100.00;101264.38;4971611;28;20004;-63
2022/12/20 00:23:25;;;;;;;7.75;3.47;;;;;;;10.75;100.00;101280.88;4954146;28;20042;-57
2022/12/20 00:25:50;;;;;;;9.43;2.90;;;;;;;10.73;100.00;101285.31;4971783;28;20031;-58
2022/12/20 00:28:16;;;;;;;5.22;3.83;;;;;;;10.66;100.00;101270.56;4972181;28;20031;-63
2022/12/20 00:30:41;;;;;;;3.95;3.08;;;;;;;10.76;100.00;101274.69;4971965;28;20030;-64
2022/12/20 00:33:06;;;;;;;5.25;3.00;;;;;;;10.73;100.00;101261.59;4971974;28;20186;-58
2022/12/20 00:35:32;;;;;;;7.63;3.08;;;;;;;10.65;100.00;101276.75;4972045;28;20026;-65
2022/12/20 00:37:57;;;;;;;8.35;3.45;;;;;;;10.72;100.00;101267.78;4970733;28;20118;-64
2022/12/20 00:40:22;;;;;;;5.55;3.60;;;;;;;10.83;100.00;101260.41;4971259;28;20154;-64
2022/12/20 00:42:48;;;;;;;5.75;3.00;;;;;;;10.82;100.00;101263.97;4970430;28;20062;-65
2022/12/20 00:45:13;;;;;;;6.05;2.90;;;;;;;10.79;100.00;101248.25;4971555;28;20026;-63
2022/12/20 00:47:38;;;;;;;5.07;2.90;;;;;;;10.78;100.00;101249.16;4971487;28;20030;-64
2022/12/20 00:50:04;;;;;;;7.13;3.67;;;;;;;10.75;100.00;101243.97;4971467;28;20361;-64
2022/12/20 00:52:30;;;;;;;6.07;3.20;;;;;;;10.63;100.00;101231.13;4970337;28;20031;-61
2022/12/20 00:54:55;;;;;;;8.50;3.13;;;;;;;10.68;100.00;101223.94;4971071;28;20034;-63
2022/12/20 00:57:20;;;;;;;5.88;3.67;;;;;;;10.61;100.00;101228.53;4970766;28;20041;-61
2022/12/20 00:59:46;;;;;;;4.10;3.20;;;;;;;10.67;100.00;101216.94;4971809;28;20057;-64
2022/12/20 01:02:11;;;;;;;9.73;3.90;;;;;;;10.60;100.00;101222.38;4970353;28;20027;-64
2022/12/20 01:04:37;;;;;;;7.10;3.55;;;;;;;10.56;100.00;101215.47;4971219;28;20114;-64
2022/12/20 01:07:02;;;;;;;6.22;3.25;;;;;;;10.65;100.00;101209.09;4969962;28;20046;-61
2022/12/20 01:09:28;;;;;;;4.55;3.33;;;;;;;10.61;100.00;101203.06;4970925;28;20046;-63
2022/12/20 01:11:53;;;;;;;7.05;3.53;;;;;;;10.49;100.00;101203.38;4970100;28;20030;-64
2022/12/20 01:14:18;;;;;;;6.75;3.78;;;;;;;10.46;100.00;101195.56;4970847;28;20058;-64
2022/12/20 01:16:46;;;;;;;7.93;4.22;;;;;;;10.44;100.00;101198.19;4970981;28;20047;-64
2022/12/20 01:19:13;;;;;;;7.60;4.20;;;;;;;10.41;100.00;101215.88;4970675;28;20109;-59
2022/12/20 01:21:43;;;;;;;6.22;3.60;;;;;;;10.40;100.00;101199.19;4971153;28;20045;-64
2022/12/20 01:24:12;;;;;;;14.48;4.30;;;;;;;10.40;100.00;101201.84;4970293;28;20427;-64
2022/12/20 01:26:37;;;;;;;5.57;3.80;;;;;;;10.25;100.00;101189.94;4971039;28;20035;-62
2022/12/20 01:29:02;;;;;;;8.32;3.65;;;;;;;10.24;100.00;101194.34;4968461;28;20046;-64
2022/12/20 01:31:28;;;;;;;8.57;3.63;;;;;;;10.27;100.00;101196.03;4969934;28;20509;-65
2022/12/20 01:33:54;;;;;;;7.28;3.63;;;;;;;10.39;100.00;101204.50;4968573;28;20031;-62
2022/12/20 01:36:23;;;;;;;5.32;3.63;;;;;;;10.31;100.00;101200.31;4969661;28;20510;-62
2022/12/20 01:38:49;;;;;;;8.65;4.15;;;;;;;10.15;100.00;101199.00;4970343;28;20037;-57
2022/12/20 01:41:17;;;;;;;7.90;4.15;;;;;;;10.20;100.00;101183.94;4970545;28;20015;-62
2022/12/20 01:43:52;;;;;;;8.65;4.00;;;;;;;10.26;100.00;101172.38;4969886;28;20105;-62
2022/12/20 01:46:19;;;;;;;8.18;3.65;;;;;;;10.29;100.00;101162.63;4970888;28;20034;-61
2022/12/20 01:48:50;;;;;;;6.15;3.70;;;;;;;10.25;100.00;101171.50;4970569;28;20030;-61
2022/12/20 01:51:16;;;;;;;8.57;4.00;;;;;;;10.24;100.00;101162.72;4953041;28;20473;-63
2022/12/20 01:53:42;;;;;;;12.77;4.00;;;;;;;10.24;100.00;101156.63;4953015;28;20477;-63
2022/12/20 01:56:08;;;;;;;11.25;4.35;;;;;;;10.08;100.00;101164.91;4969490;28;20026;-63
2022/12/20 01:58:34;;;;;;;4.97;3.53;;;;;;;10.08;100.00;101169.31;4969840;28;20019;-61
2022/12/20 02:01:00;;;;;;;6.95;3.72;;;;;;;10.10;100.00;101168.41;4969028;28;20027;-65
2022/12/20 02:03:26;;;;;;;5.40;3.70;;;;;;;10.09;100.00;101171.06;4969479;28;20034;-58
2022/12/20 02:05:51;;;;;;;7.68;3.55;;;;;;;10.07;100.00;101171.09;4969140;28;20034;-65
2022/12/20 02:08:18;;;;;;;6.00;3.80;;;;;;;10.03;100.00;101172.09;4970626;28;20030;-64
2022/12/20 02:13:22;;;;;;;5.68;4.03;;;;;;;10.01;100.00;101166.00;4986291;28;20043;-64
2022/12/20 02:15:54;;;;;;;9.85;4.10;;;;;;;10.12;100.00;101152.56;4988808;28;20022;-64
2022/12/20 02:18:28;;;;;;;7.57;3.92;;;;;;;10.20;100.00;101154.94;4989977;28;20022;-62
2022/12/20 02:21:18;;;;;;;4.78;3.50;;;;;;;10.25;100.00;101171.50;4988152;28;20031;-58
2022/12/20 02:24:02;;;;;;;6.05;3.28;;;;;;;10.27;100.00;101188.16;4989627;28;20041;-64
2022/12/20 02:26:46;;;;;;;5.68;3.33;;;;;;;10.24;100.00;101173.28;4989375;28;20117;-64
2022/12/20 02:29:17;;;;;;;6.15;3.28;;;;;;;10.26;100.00;101183.75;4987728;28;20034;-65
2022/12/20 02:32:07;;;;;;;10.05;4.30;;;;;;;10.20;100.00;101179.53;4988651;28;20030;-64
2022/12/20 02:34:35;;;;;;;5.70;3.20;;;;;;;10.26;100.00;101172.38;4988681;28;20023;-63
2022/12/20 02:37:00;;;;;;;7.65;3.50;;;;;;;10.36;100.00;101160.69;4987776;28;20026;-58
2022/12/20 02:39:27;;;;;;;7.28;3.40;;;;;;;10.40;100.00;101161.44;4989643;28;20843;-65
2022/12/20 02:41:56;;;;;;;12.90;3.67;;;;;;;10.33;100.00;101160.78;4987374;28;20029;-63
2022/12/20 02:47:12;;;;;;;11.07;4.28;;;;;;;10.44;100.00;101152.53;4988350;28;20483;-58
2022/12/20 02:49:40;;;;;;;8.20;2.90;;;;;;;10.42;100.00;101159.66;4987707;28;20030;-65
2022/12/20 02:52:07;;;;;;;6.88;3.92;;;;;;;10.42;100.00;101149.09;4989281;28;20499;-65
2022/12/20 02:54:33;;;;;;;6.20;3.28;;;;;;;10.52;100.00;101144.47;4989731;28;20077;-66
2022/12/20 02:57:33;;;;;;;3.92;3.03;;;;;;;10.43;100.00;101158.72;4988768;28;20419;-65
2022/12/20 03:00:04;;;;;;;3.80;3.15;;;;;;;10.46;100.00;101154.28;4987869;28;20038;-66
2022/12/20 03:03:21;;;;;;;4.03;2.88;;;;;;;10.60;100.00;101148.59;4987713;28;20030;-64
2022/12/20 03:05:19;;;;;;;3.80;3.00;;;;;;;10.61;100.00;101145.06;4987287;28;20034;-65
2022/12/20 03:07:45;;;;;;;4.03;3.25;;;;;;;10.56;100.00;101146.09;4987764;28;20035;-63
2022/12/20 03:10:10;;;;;;;11.25;3.53;;;;;;;10.48;100.00;101151.59;4988732;28;20088;-66
2022/12/20 03:12:35;;;;;;;6.50;3.50;;;;;;;10.58;100.00;101155.69;5003030;28;20050;-64
2022/12/20 03:15:01;;;;;;;5.75;3.38;;;;;;;10.55;100.00;101153.16;5008569;28;20030;-64
2022/12/20 03:17:26;;;;;;;4.32;2.92;;;;;;;10.56;100.00;101141.69;5008807;28;20033;-66
2022/12/20 03:19:51;;;;;;;5.30;3.30;;;;;;;10.61;100.00;101144.19;5008579;28;20040;-66
2022/12/20 03:22:17;;;;;;;7.35;3.20;;;;;;;10.56;100.00;101144.34;5008852;28;20112;-66
2022/12/20 03:24:42;;;;;;;8.55;3.55;;;;;;;10.53;100.00;101139.16;5009210;28;20040;-60
2022/12/20 03:27:08;;;;;;;8.40;3.15;;;;;;;10.47;100.00;101139.31;4991965;28;20030;-66
2022/12/20 03:29:33;;;;;;;5.90;3.10;;;;;;;10.42;100.00;101152.59;5012454;28;20058;-65
2022/12/20 03:31:58;;;;;;;9.98;3.38;;;;;;;10.42;100.00;101141.22;5012115;28;20087;-64
2022/12/20 03:34:24;;;;;;;6.35;3.55;;;;;;;10.34;100.00;101144.94;5011786;28;20531;-62
2022/12/20 03:36:49;;;;;;;6.60;3.15;;;;;;;10.30;100.00;101135.34;5012994;28;20396;-64
2022/12/20 03:39:14;;;;;;;5.03;3.30;;;;;;;10.27;100.00;101140.75;5011889;28;20345;-65
2022/12/20 03:41:40;;;;;;;5.78;3.65;;;;;;;10.26;100.00;101136.34;4993865;28;20061;-65
2022/12/20 03:44:05;;;;;;;5.65;3.08;;;;;;;10.24;100.00;101130.28;5012084;28;20453;-56
2022/12/20 03:46:30;;;;;;;6.65;3.28;;;;;;;10.31;100.00;101131.84;5012103;28;20112;-65
2022/12/20 03:48:56;;;;;;;4.97;3.50;;;;;;;10.36;100.00;101119.38;4994077;28;20096;-65
2022/12/20 03:51:21;;;;;;;5.10;2.83;;;;;;;10.43;100.00;101120.09;5011525;28;20034;-64
2022/12/20 03:53:46;;;;;;;5.88;3.30;;;;;;;10.45;100.00;101135.84;5012394;28;20135;-66
2022/12/20 03:56:12;;;;;;;10.65;3.22;;;;;;;10.48;100.00;101127.91;5010241;28;20037;-65
2022/12/20 03:58:38;;;;;;;5.00;3.20;;;;;;;10.56;100.00;101136.44;5030989;28;20029;-65
2022/12/20 04:01:24;;;;;;;5.47;3.17;;;;;;;10.64;100.00;101130.06;5030552;28;20032;-65
2022/12/20 04:03:50;;;;;;;4.05;3.08;;;;;;;10.63;100.00;101129.22;5013591;28;20017;-56
2022/12/20 04:06:16;;;;;;;6.25;2.90;;;;;;;10.64;100.00;101127.44;5031578;28;20504;-65
2022/12/20 04:08:42;;;;;;;4.93;2.78;;;;;;;10.74;100.00;101119.22;5031039;28;20033;-63
2022/12/20 04:11:16;;;;;;;6.88;3.03;;;;;;;10.82;100.00;101126.91;5030767;28;20045;-64
2022/12/20 04:13:43;;;;;;;6.10;2.97;;;;;;;10.94;100.00;101119.50;5030608;28;20026;-66
2022/12/20 04:16:09;;;;;;;4.95;3.50;;;;;;;11.01;100.00;101123.69;5031268;28;20056;-65
2022/12/20 04:18:35;;;;;;;7.60;3.42;;;;;;;10.98;100.00;101123.78;5031272;28;20037;-65
2022/12/20 04:21:00;;;;;;;6.32;2.95;;;;;;;11.08;100.00;101119.09;5030833;28;20025;-64
2022/12/20 04:23:26;;;;;;;5.15;2.83;;;;;;;11.07;100.00;101114.69;5031042;28;20029;-66
2022/12/20 04:25:51;;;;;;;6.97;3.05;;;;;;;11.14;100.00;101116.25;5000168;28;20125;-63
2022/12/20 04:28:16;;;;;;;5.22;2.97;;;;;;;11.17;100.00;101104.75;4991354;28;20030;-66
2022/12/20 04:30:41;;;;;;;5.50;3.42;;;;;;;11.19;100.00;101116.97;4990912;28;20093;-58
2022/12/20 04:33:07;;;;;;;3.47;3.13;;;;;;;11.18;100.00;101111.72;4990446;28;20038;-64
2022/12/20 04:35:32;;;;;;;6.47;3.45;;;;;;;11.18;100.00;101117.00;4991366;28;20558;-64
2022/12/20 04:37:58;;;;;;;8.00;3.42;;;;;;;11.20;100.00;101121.31;4972707;28;20030;-67
2022/12/20 04:40:23;;;;;;;8.52;3.40;;;;;;;11.23;100.00;101115.09;4991149;28;20034;-63
2022/12/20 04:42:48;;;;;;;9.93;4.22;;;;;;;11.27;100.00;101114.09;4990840;28;20392;-66
2022/12/20 04:45:14;;;;;;;7.18;3.20;;;;;;;11.28;100.00;101105.25;4990561;28;20050;-63
2022/12/20 04:47:39;;;;;;;6.20;3.70;;;;;;;11.34;100.00;101090.97;5030432;28;20091;-64
2022/12/20 04:50:06;;;;;;;4.00;3.42;;;;;;;11.23;100.00;101086.09;5029972;28;20036;-65
2022/12/20 04:55:15;;;;;;;6.38;4.15;;;;;;;11.20;100.00;101088.81;5030510;28;20096;-66
2022/12/20 04:57:41;;;;;;;7.47;4.30;;;;;;;11.11;100.00;101077.63;5011876;28;20025;-67
2022/12/20 05:00:07;;;;;;;6.43;3.75;;;;;;;11.11;100.00;101077.63;5030334;28;20080;-64
2022/12/20 05:02:32;;;;;;;7.85;3.97;;;;;;;11.15;100.00;101073.13;5029760;28;20087;-67
2022/12/20 05:04:57;;;;;;;5.85;3.60;;;;;;;11.23;100.00;101067.63;5029922;28;20025;-65
2022/12/20 05:07:22;;;;;;;7.22;3.70;;;;;;;11.21;100.00;101077.34;5028948;28;20122;-62
2022/12/20 05:09:48;;;;;;;9.35;3.78;;;;;;;11.19;100.00;101072.13;5030519;28;20041;-65
2022/12/20 05:12:13;;;;;;;9.65;4.00;;;;;;;11.18;100.00;101058.97;5028473;28;20057;-65
2022/12/20 05:14:38;;;;;;;7.32;3.83;;;;;;;11.29;100.00;101054.19;4995750;28;20049;-65
2022/12/20 05:17:04;;;;;;;6.50;3.75;;;;;;;11.25;100.00;101055.22;5029600;28;20033;-61
2022/12/20 05:19:29;;;;;;;7.05;3.67;;;;;;;11.20;100.00;101046.63;5030606;28;20030;-64
2022/12/20 05:27:22;;;;;;;5.47;3.70;;;;;;;11.03;100.00;101055.06;5015665;28;20049;-63
2022/12/20 05:29:47;;;;;;;5.80;3.67;;;;;;;11.19;100.00;101044.88;4973450;28;20018;-62
2022/12/20 05:32:13;;;;;;;6.20;3.67;;;;;;;11.18;100.00;101043.16;4972773;28;20041;-65
2022/12/20 05:34:39;;;;;;;6.25;3.70;;;;;;;11.20;100.00;101041.34;4977133;28;20026;-63
2022/12/20 05:37:04;;;;;;;5.30;3.38;;;;;;;11.21;100.00;101058.88;5010231;28;20421;-65
2022/12/20 05:39:29;;;;;;;5.57;3.20;;;;;;;11.25;100.00;101057.88;5009820;28;20068;-66
2022/12/20 05:41:55;;;;;;;7.45;3.15;;;;;;;11.29;100.00;101059.47;5009605;28;20022;-61
2022/12/20 05:44:21;;;;;;;5.03;3.17;;;;;;;11.25;100.00;101068.41;5010166;28;20026;-58
2022/12/20 05:46:46;;;;;;;5.13;3.53;;;;;;;11.28;100.00;101056.88;5010515;28;20465;-65
2022/12/20 05:49:11;;;;;;;3.30;3.00;;;;;;;11.32;100.00;101045.34;5009638;28;20092;-57
2022/12/20 05:51:37;;;;;;;4.45;3.13;;;;;;;11.32;100.00;101040.91;5010068;28;20036;-66
2022/12/20 05:54:02;;;;;;;6.95;3.25;;;;;;;11.33;100.00;101031.22;5008962;28;20109;-66
2022/12/20 05:56:28;;;;;;;5.95;3.45;;;;;;;11.31;100.00;101036.56;5009362;28;20064;-65
2022/12/20 05:58:53;;;;;;;4.10;3.28;;;;;;;11.35;100.00;101046.09;5008566;28;20080;-62
2022/12/20 06:01:19;;;;;;;5.93;3.63;;;;;;;11.34;100.00;101047.00;5003926;28;20062;-65
2022/12/20 06:03:44;;;;;;;6.88;3.30;;;;;;;11.34;100.00;101044.38;5005163;28;20026;-66
2022/12/20 06:06:10;;;;;;;7.32;3.35;;;;;;;11.37;100.00;101033.72;5009217;28;20034;-62
2022/12/20 06:08:36;;;;;;;4.43;3.10;;;;;;;11.38;100.00;101039.88;5008045;28;20030;-65
2022/12/20 06:11:03;;;;;;;5.53;3.35;;;;;;;11.36;100.00;101045.19;5017019;28;20068;-65
2022/12/20 06:13:29;;;;;;;9.27;3.17;;;;;;;11.31;100.00;101036.56;5001783;28;20034;-63
2022/12/20 06:15:54;;;;;;;5.43;3.10;;;;;;;11.30;100.00;101024.28;5005985;28;20093;-65
2022/12/20 06:18:20;;;;;;;9.90;4.03;;;;;;;11.36;100.00;101026.72;5005911;28;20032;-64
2022/12/20 06:20:50;;;;;;;4.70;3.05;;;;;;;11.35;100.00;101030.25;4989069;28;20113;-66
2022/12/20 06:23:15;;;;;;;8.05;3.40;;;;;;;11.33;100.00;101016.28;4987531;28;20030;-66
2022/12/20 06:25:41;;;;;;;6.15;2.88;;;;;;;11.30;100.00;101020.78;4991613;28;20029;-66
2022/12/20 06:28:06;;;;;;;4.97;2.90;;;;;;;11.30;100.00;101026.94;4990437;28;20034;-60
2022/12/20 06:30:32;;;;;;;7.43;3.22;;;;;;;11.22;100.00;101032.47;5013255;28;20116;-65
2022/12/20 06:32:58;;;;;;;3.90;2.97;;;;;;;11.28;100.00;101034.03;5028197;28;20505;-66
2022/12/20 06:35:24;;;;;;;4.55;2.70;;;;;;;11.25;100.00;101037.63;5027627;28;20037;-65
2022/12/20 06:37:49;;;;;;;3.92;2.70;;;;;;;11.31;100.00;101033.03;5029073;28;20033;-68
2022/12/20 06:40:15;;;;;;;8.32;3.10;;;;;;;11.29;100.00;101034.91;5009787;28;20037;-68
2022/12/20 06:42:40;;;;;;;7.90;3.15;;;;;;;11.29;100.00;101045.44;5008928;28;20033;-67
2022/12/20 06:45:06;;;;;;;7.00;2.90;;;;;;;11.27;100.00;101040.22;5009116;28;20065;-67
2022/12/20 06:47:32;;;;;;;5.15;2.80;;;;;;;11.26;100.00;101030.59;5006288;28;20026;-60
2022/12/20 06:49:57;;;;;;;6.40;3.40;;;;;;;11.05;100.00;101027.72;5008991;28;20037;-63
2022/12/20 06:52:22;;;;;;;5.13;2.90;;;;;;;11.24;100.00;101027.13;5007566;28;20045;-65
2022/12/20 06:54:48;;;;;;;6.70;3.13;;;;;;;11.21;100.00;101032.50;5008826;28;20037;-65
2022/12/20 06:57:13;;;;;;;7.57;3.20;;;;;;;11.25;100.00;101040.28;5007172;28;20424;-66
2022/12/20 06:59:39;;;;;;;5.50;2.92;;;;;;;11.26;100.00;101030.59;5007509;28;20051;-65
2022/12/20 07:02:04;;;;;;;5.68;2.90;;;;;;;11.24;100.00;101035.03;5011024;28;20527;-64
2022/12/20 07:04:29;;;;;;;5.28;3.25;;;;;;;11.31;100.00;101033.91;5011353;28;20065;-64
2022/12/20 07:06:56;;;;;;;6.30;3.60;;;;;;;11.25;100.00;101024.44;5011823;28;20014;-64
2022/12/20 07:09:21;;;;;;;4.80;2.70;;;;;;;11.31;100.00;101033.91;5012135;28;20061;-67
2022/12/20 07:11:47;;;;;;;4.90;2.88;;;;;;;11.32;100.00;101032.16;5010865;28;20125;-66
2022/12/20 07:14:12;;;;;;;5.82;2.90;;;;;;;11.46;100.00;101034.31;5011036;28;20420;-56
2022/12/20 07:16:40;;;;;;;6.07;2.40;;;;;;;11.37;100.00;101038.13;5012067;28;20045;-63
2022/12/20 07:19:05;;;;;;;3.50;2.38;;;;;;;11.48;100.00;101045.69;5011512;28;20551;-64
2022/12/20 07:21:31;;;;;;;4.25;2.03;;;;;;;11.54;100.00;101034.91;4994088;28;20110;-65
2022/12/20 07:23:56;;;;;;;4.93;2.20;;;;;;;11.66;100.00;101038.91;5011338;28;20025;-65
2022/12/20 07:26:21;;;;;;;5.13;2.47;;;;;;;11.66;100.00;101028.34;5009929;28;20026;-56
2022/12/20 07:28:47;;;;;;;5.25;2.75;;;;;;;11.61;100.00;101036.41;5011823;28;20108;-66
2022/12/20 07:31:12;;;;;;;6.82;2.50;;;;;;;11.56;100.00;101032.22;5010147;28;20476;-66
2022/12/20 07:33:38;;;;;;;6.88;2.42;;;;;;;11.71;100.00;101036.09;5011189;28;20025;-64
2022/12/20 07:36:06;;;;;;;5.85;2.17;;;;;;;11.72;100.00;101022.84;5011352;28;20383;-61
2022/12/20 07:38:32;;;;;;;4.65;2.45;;;;;;;11.69;100.00;101032.66;5011316;28;20021;-65
2022/12/20 07:40:58;;;;;;;4.05;2.45;;;;;;;11.61;100.00;101039.06;5011121;28;20068;-67
2022/12/20 07:43:24;;;;;;;5.22;2.65;;;;;;;11.60;100.00;101028.56;5011200;28;20022;-66
2022/12/20 07:45:55;;;;;;;6.88;2.22;;;;;;;11.56;100.00;101035.72;5010968;28;20045;-67
2022/12/20 07:48:22;;;;;;;5.47;2.20;;;;;;;11.53;100.00;101027.88;5011676;28;20104;-64
2022/12/20 07:50:51;;;;;;;5.85;2.30;;;;;;;11.51;100.00;101029.75;5011765;28;20441;-63
2022/12/20 07:53:17;;;;;;;;;;;;;;;11.57;100.00;101032.16;4994530;28;20018;-57
2022/12/20 07:55:42;;;;;;;6.18;2.45;;;;;;;11.46;100.00;101026.38;4993564;28;19920;-65
2022/12/20 07:58:08;;;;;;;6.88;2.65;;;;;;;11.50;100.00;101023.59;4993154;28;20040;-65
2022/12/20 08:00:35;;;;;;;4.35;2.60;;;;;;;11.46;100.00;101031.66;4993872;28;20024;-67
2022/12/20 08:03:05;;;;;;;10.95;2.70;;;;;;;11.28;100.00;101041.06;5010232;28;20129;-65
2022/12/20 08:05:32;;;;;;;5.50;2.90;;;;;;;11.32;100.00;101034.78;5028099;28;20030;-68
2022/12/20 08:07:58;;;;;;;4.97;2.45;;;;;;;11.31;100.00;101041.84;5020313;28;20121;-60
2022/12/20 08:10:23;;;;;;;8.52;3.00;;;;;;;11.24;100.00;101037.69;5010475;28;20109;-66
2022/12/20 08:12:49;;;;;;;11.45;3.15;;;;;;;11.34;100.00;101044.38;5009084;28;20506;-67
2022/12/20 08:15:15;;;;;;;4.10;2.33;;;;;;;11.29;100.00;101041.00;4993679;28;20026;-65
2022/12/20 08:17:40;;;;;;;5.80;2.65;;;;;;;11.21;100.00;101043.06;5025717;28;20033;-63
2022/12/20 08:20:07;;;;;;;5.47;3.00;;;;;;;11.21;100.00;101037.78;5030353;28;20287;-63
2022/12/20 08:22:33;;;;;;;6.93;2.50;;;;;;;11.29;100.00;101046.28;5024796;28;20033;-64
2022/12/20 08:24:58;;;;;;;4.40;2.45;;;;;;;11.31;100.00;101039.19;5010668;28;20105;-67
2022/12/20 08:27:24;;;;;;;6.25;2.60;;;;;;;11.20;100.00;101034.28;5009836;28;20480;-68
2022/12/20 08:29:49;;;;;;;3.47;2.50;;;;;;;11.30;100.00;101034.84;5010978;28;20468;-65
2022/12/20 08:32:15;;;;;;;6.40;2.70;;;;;;;11.28;100.00;101041.94;5010339;28;20033;-70
2022/12/20 08:34:40;;;;;;;3.35;2.55;;;;;;;11.32;100.00;101032.16;5009888;28;20484;-67
2022/12/20 08:37:06;;;;;;;5.00;2.70;;;;;;;11.34;100.00;101028.53;5010392;28;20036;-65
2022/12/20 08:39:31;;;;;;;4.20;2.67;;;;;;;11.29;100.00;101030.47;5009619;28;20036;-68
2022/12/20 08:41:57;;;;;;;4.95;2.40;;;;;;;11.34;100.00;101041.75;5008552;28;20095;-68
2022/12/20 08:44:22;;;;;;;4.18;2.67;;;;;;;11.32;100.00;101033.00;5009938;28;20518;-68
2022/12/20 08:46:48;;;;;;;6.32;2.55;;;;;;;11.44;100.00;101034.34;5010172;28;20026;-69
2022/12/20 08:49:13;;;;;;;5.05;2.60;;;;;;;11.44;100.00;101042.28;5010195;28;20451;-69
2022/12/20 08:51:38;;;;;;;4.88;2.47;;;;;;;11.42;100.00;101032.69;5009816;28;20057;-69
2022/12/20 08:54:04;;;;;;;4.00;2.15;;;;;;;11.36;100.00;101032.00;5009796;28;20468;-64
2022/12/20 08:56:29;;;;;;;5.35;2.58;;;;;;;11.44;100.00;101028.25;5009155;28;20030;-69
2022/12/20 08:58:55;;;;;;;6.78;2.40;;;;;;;11.41;100.00;101031.81;5010509;28;20014;-68
2022/12/20 09:01:21;;;;;;;4.03;2.50;;;;;;;11.36;100.00;101042.56;5009251;28;20483;-60
2022/12/20 09:03:47;;;;;;;6.55;2.60;;;;;;;11.21;100.00;101045.69;5009904;28;20029;-69
2022/12/20 09:06:19;;;;;;;5.97;2.70;;;;;;;11.29;100.00;101041.00;5008799;28;20425;-67
2022/12/20 09:08:45;;;;;;;6.82;2.58;;;;;;;11.29;100.00;101040.16;5009016;28;20041;-64
2022/12/20 09:11:13;;;;;;;4.50;2.50;;;;;;;11.16;100.00;101047.59;5009034;28;20084;-69
2022/12/20 09:13:39;;;;;;;6.18;2.88;;;;;;;11.10;100.00;101044.28;5009385;28;20082;-69
2022/12/20 09:16:06;;;;;;;5.95;2.83;;;;;;;11.21;100.00;101043.06;5009565;28;20022;-68
2022/12/20 09:18:32;;;;;;;5.82;2.90;;;;;;;11.21;100.00;101048.34;5009088;28;20022;-61
2022/12/20 09:21:02;;;;;;;5.38;2.88;;;;;;;11.22;100.00;101040.38;4991539;28;20108;-69
2022/12/20 09:23:28;;;;;;;7.38;2.95;;;;;;;11.19;100.00;101050.16;5009497;28;20139;-67
2022/12/20 09:25:55;;;;;;;5.25;3.63;;;;;;;11.18;100.00;101046.66;5006585;28;20101;-70
2022/12/20 09:28:21;;;;;;;5.95;3.15;;;;;;;11.21;100.00;101045.69;4992164;28;20475;-59
2022/12/20 09:30:46;;;;;;;12.77;3.47;;;;;;;11.29;100.00;101041.00;5008839;28;20034;-67
2022/12/20 09:33:11;;;;;;;7.53;3.00;;;;;;;11.25;100.00;101036.75;5003993;28;20400;-67
2022/12/20 09:35:44;;;;;;;10.25;3.03;;;;;;;11.17;100.00;101052.84;4997885;28;20084;-67
2022/12/20 09:38:09;;;;;;;6.18;2.80;;;;;;;11.18;100.00;101038.75;5001519;28;20026;-68
2022/12/20 09:40:37;;;;;;;10.35;3.38;;;;;;;11.15;100.00;101044.13;5009149;28;20022;-66
2022/12/20 09:43:03;;;;;;;7.93;2.92;;;;;;;11.23;100.00;101035.97;5001003;28;20519;-68
2022/12/20 09:45:31;;;;;;;7.15;3.05;;;;;;;11.16;100.00;101029.16;5009479;28;20113;-65
2022/12/20 09:47:57;;;;;;;6.57;3.42;;;;;;;11.05;100.00;101037.44;4990942;28;20469;-67
2022/12/20 09:50:40;;;;;;;5.03;3.00;;;;;;;11.21;100.00;101028.09;5008876;28;20109;-69
2022/12/20 09:53:19;;;;;;;5.63;2.80;;;;;;;11.25;100.00;101036.75;4990323;28;20044;-69
2022/12/20 09:56:02;;;;;;;6.50;3.25;;;;;;;11.22;100.00;101044.78;5006361;28;20053;-63
2022/12/20 09:58:37;;;;;;;9.43;3.55;;;;;;;11.19;100.00;101036.97;4990512;28;20033;-66
2022/12/20 10:01:21;;;;;;;5.68;3.05;;;;;;;11.20;100.00;101033.44;5008298;28;20021;-69
2022/12/20 10:03:46;;;;;;;8.32;3.63;;;;;;;11.16;100.00;101037.94;4990428;28;20029;-68
2022/12/20 10:06:33;;;;;;;11.38;3.30;;;;;;;11.15;100.00;101044.13;5008918;28;20034;-67
2022/12/20 10:09:01;;;;;;;6.20;3.45;;;;;;;11.22;100.00;101050.06;5007119;28;20034;-69
2022/12/20 10:11:53;;;;;;;9.05;3.40;;;;;;;11.18;100.00;101043.16;5003231;28;20081;-63
2022/12/20 10:14:32;;;;;;;7.45;3.20;;;;;;;11.11;100.00;101031.97;4991212;28;20029;-60
2022/12/20 10:17:04;;;;;;;5.55;3.30;;;;;;;11.22;100.00;101031.59;5007696;28;20037;-70
2022/12/20 10:19:56;;;;;;;8.30;3.38;;;;;;;11.08;100.00;101025.00;4990833;28;20030;-68
2022/12/20 10:22:37;;;;;;;6.28;3.22;;;;;;;11.08;100.00;101035.53;5006789;28;20022;-69
2022/12/20 10:25:16;;;;;;;5.50;3.30;;;;;;;11.13;100.00;101030.13;4988077;28;20392;-68
2022/12/20 10:27:42;;;;;;;6.25;3.08;;;;;;;11.20;100.00;101025.53;4990239;28;20026;-69
2022/12/20 10:30:16;;;;;;;7.28;3.53;;;;;;;11.23;100.00;101026.25;5006582;28;20040;-69
2022/12/20 10:32:48;;;;;;;5.82;3.00;;;;;;;11.21;100.00;101021.97;4991185;28;20033;-67
2022/12/20 10:35:13;;;;;;;8.70;3.15;;;;;;;11.16;100.00;101019.47;5007853;28;20085;-67
2022/12/20 10:37:55;;;;;;;9.60;3.40;;;;;;;11.12;100.00;101029.28;5009452;28;20080;-69
2022/12/20 10:40:32;;;;;;;4.68;3.08;;;;;;;11.15;100.00;101023.03;5005560;28;20116;-64
2022/12/20 10:42:59;;;;;;;7.75;3.40;;;;;;;11.18;100.00;101020.28;5008679;28;20533;-69
2022/12/20 10:45:31;;;;;;;6.57;3.20;;;;;;;11.23;100.00;101017.50;5008129;28;20057;-69
2022/12/20 10:47:59;;;;;;;7.80;3.40;;;;;;;11.19;100.00;101019.38;5009315;28;20044;-66
2022/12/20 10:50:25;;;;;;;4.95;3.10;;;;;;;11.15;100.00;101017.75;5007954;28;20424;-65
2022/12/20 10:53:20;;;;;;;9.40;3.45;;;;;;;11.16;100.00;101019.47;4991302;28;20105;-60
2022/12/20 10:55:46;;;;;;;5.15;3.40;;;;;;;11.26;100.00;101014.78;4982328;28;20809;-69
2022/12/20 10:58:34;;;;;;;5.80;3.28;;;;;;;11.31;100.00;101012.81;5009090;28;20030;-65
2022/12/20 11:01:17;;;;;;;9.43;3.63;;;;;;;11.32;100.00;101008.41;4993699;28;20571;-66
2022/12/20 11:03:56;;;;;;;7.00;3.33;;;;;;;11.13;100.00;101009.03;5008912;28;20465;-60
2022/12/20 11:06:25;;;;;;;7.75;3.67;;;;;;;11.24;100.00;101008.66;5008964;28;20037;-66
2022/12/20 11:08:51;;;;;;;7.00;3.65;;;;;;;11.28;100.00;100997.09;5008671;28;20048;-66
2022/12/20 11:11:22;;;;;;;7.60;3.65;;;;;;;11.19;100.00;101003.53;4989425;28;20488;-68
2022/12/20 11:13:49;;;;;;;7.65;3.45;;;;;;;11.24;100.00;101003.41;4991672;28;20030;-64
2022/12/20 11:16:34;;;;;;;6.38;3.47;;;;;;;11.22;100.00;100998.16;5008114;28;20690;-66
2022/12/20 11:19:21;;;;;;;7.47;3.58;;;;;;;11.30;100.00;101005.81;5005755;28;20026;-67
2022/12/20 11:22:02;;;;;;;4.95;3.30;;;;;;;11.23;100.00;100999.03;5008823;28;20500;-67
2022/12/20 11:24:39;;;;;;;7.22;3.58;;;;;;;11.22;100.00;101011.34;4990088;28;20022;-62
2022/12/20 11:27:20;;;;;;;6.40;3.30;;;;;;;11.26;100.00;100998.94;5005730;28;20038;-67
2022/12/20 11:30:03;;;;;;;5.22;3.80;;;;;;;11.29;100.00;101005.88;5008068;28;20073;-68
2022/12/20 11:32:48;;;;;;;7.15;3.40;;;;;;;11.29;100.00;101000.59;5005528;28;20022;-57
2022/12/20 11:35:34;;;;;;;6.90;3.55;;;;;;;11.32;100.00;101009.25;5006143;28;20050;-69